createdAt,value
2017-07-19T00:00:56.230Z,1006.27
2017-07-19T00:01:56.155Z,1006.28
2017-07-19T00:02:56.169Z,1006.26
2017-07-19T00:03:56.187Z,1006.28
2017-07-19T00:04:56.229Z,1006.33
2017-07-19T00:05:56.166Z,1006.29
2017-07-19T00:06:56.198Z,1006.33
2017-07-19T00:07:56.143Z,1006.36
2017-07-19T00:08:56.199Z,1006.32
2017-07-19T00:09:56.143Z,1006.31
2017-07-19T00:10:56.130Z,1006.37
2017-07-19T00:11:56.168Z,1006.38
2017-07-19T00:12:56.201Z,1006.37
2017-07-19T00:13:56.209Z,1006.40
2017-07-19T00:14:56.233Z,1006.33
2017-07-19T00:15:56.178Z,1006.32
2017-07-19T00:16:56.176Z,1006.36
2017-07-19T00:17:56.189Z,1006.32
2017-07-19T00:18:56.145Z,1006.28
2017-07-19T00:19:56.175Z,1006.28
2017-07-19T00:20:56.145Z,1006.27
2017-07-19T00:21:56.154Z,1006.34
2017-07-19T00:22:56.197Z,1006.37
2017-07-19T00:23:56.150Z,1006.29
2017-07-19T00:24:56.180Z,1006.32
2017-07-19T00:25:56.237Z,1006.24
2017-07-19T00:26:56.216Z,1006.28
2017-07-19T00:27:56.184Z,1006.20
2017-07-19T00:28:56.237Z,1006.20
2017-07-19T00:29:56.155Z,1006.19
2017-07-19T00:30:56.214Z,1006.20
2017-07-19T00:31:56.184Z,1006.20
2017-07-19T00:32:56.200Z,1006.22
2017-07-19T00:33:56.237Z,1006.23
2017-07-19T00:34:56.183Z,1006.20
2017-07-19T00:35:56.189Z,1006.26
2017-07-19T00:36:56.205Z,1006.21
2017-07-19T00:37:56.207Z,1006.19
2017-07-19T00:38:56.203Z,1006.20
2017-07-19T00:39:56.142Z,1006.15
2017-07-19T00:40:56.149Z,1006.14
2017-07-19T00:41:56.147Z,1006.14
2017-07-19T00:42:56.209Z,1006.21
2017-07-19T00:43:56.148Z,1006.17
2017-07-19T00:44:56.151Z,1006.15
2017-07-19T00:45:56.179Z,1006.18
2017-07-19T00:46:56.180Z,1006.20
2017-07-19T00:47:56.188Z,1006.18
2017-07-19T00:48:56.155Z,1006.16
2017-07-19T00:49:56.210Z,1006.12
2017-07-19T00:50:56.209Z,1006.12
2017-07-19T00:51:56.153Z,1006.09
2017-07-19T00:52:56.220Z,1006.06
2017-07-19T00:53:56.208Z,1006.12
2017-07-19T00:54:56.156Z,1006.13
2017-07-19T00:55:56.216Z,1006.11
2017-07-19T00:56:56.216Z,1006.12
2017-07-19T00:57:56.252Z,1006.11
2017-07-19T00:58:56.176Z,1006.11
2017-07-19T00:59:56.229Z,1006.16
2017-07-19T01:00:56.202Z,1006.13
2017-07-19T01:01:56.164Z,1006.16
2017-07-19T01:02:56.169Z,1006.11
2017-07-19T01:03:56.203Z,1006.18
2017-07-19T01:04:56.265Z,1006.14
2017-07-19T01:05:56.257Z,1006.07
2017-07-19T01:06:56.167Z,1006.06
2017-07-19T01:07:56.222Z,1006.03
2017-07-19T01:08:56.204Z,1006.08
2017-07-19T01:09:56.202Z,1006.05
2017-07-19T01:10:56.208Z,1006.09
2017-07-19T01:11:56.265Z,1006.09
2017-07-19T01:12:56.184Z,1006.02
2017-07-19T01:13:56.238Z,1006.09
2017-07-19T01:14:56.238Z,1006.09
2017-07-19T01:15:56.239Z,1006.10
2017-07-19T01:16:56.205Z,1006.09
2017-07-19T01:17:56.184Z,1006.06
2017-07-19T01:18:56.174Z,1006.06
2017-07-19T01:19:56.207Z,1006.07
2017-07-19T01:20:56.239Z,1006.00
2017-07-19T01:21:56.246Z,1005.99
2017-07-19T01:22:56.203Z,1005.99
2017-07-19T01:23:56.176Z,1006.02
2017-07-19T01:24:56.211Z,1005.99
2017-07-19T01:25:56.207Z,1006.01
2017-07-19T01:26:56.233Z,1006.00
2017-07-19T01:27:56.245Z,1006.01
2017-07-19T01:28:56.241Z,1005.98
2017-07-19T01:29:56.280Z,1005.96
2017-07-19T01:30:56.215Z,1005.98
2017-07-19T01:31:56.191Z,1005.97
2017-07-19T01:32:56.242Z,1005.89
2017-07-19T01:33:56.249Z,1005.94
2017-07-19T01:34:56.254Z,1005.91
2017-07-19T01:35:56.193Z,1005.90
2017-07-19T01:36:56.208Z,1005.94
2017-07-19T01:37:56.204Z,1005.87
2017-07-19T01:38:56.183Z,1005.80
2017-07-19T01:39:56.208Z,1005.78
2017-07-19T01:40:56.212Z,1005.87
2017-07-19T01:41:56.206Z,1005.82
2017-07-19T01:42:56.209Z,1005.81
2017-07-19T01:43:56.188Z,1005.79
2017-07-19T01:44:56.245Z,1005.76
2017-07-19T01:45:56.244Z,1005.78
2017-07-19T01:46:56.185Z,1005.81
2017-07-19T01:47:56.221Z,1005.83
2017-07-19T01:48:56.261Z,1005.80
2017-07-19T01:49:56.228Z,1005.77
2017-07-19T01:50:56.320Z,1005.73
2017-07-19T01:51:56.191Z,1005.73
2017-07-19T01:52:56.249Z,1005.70
2017-07-19T01:53:56.228Z,1005.72
2017-07-19T01:54:56.291Z,1005.75
2017-07-19T01:55:56.249Z,1005.73
2017-07-19T01:56:56.229Z,1005.67
2017-07-19T01:57:56.282Z,1005.72
2017-07-19T01:58:56.220Z,1005.72
2017-07-19T01:59:56.300Z,1005.68
2017-07-19T02:00:56.292Z,1005.67
2017-07-19T02:01:56.289Z,1005.63
2017-07-19T02:02:56.253Z,1005.61
2017-07-19T02:03:56.256Z,1005.63
2017-07-19T02:04:56.268Z,1005.56
2017-07-19T02:05:56.236Z,1005.56
2017-07-19T02:06:56.226Z,1005.58
2017-07-19T02:07:56.240Z,1005.55
2017-07-19T02:08:56.212Z,1005.60
2017-07-19T02:09:56.233Z,1005.58
2017-07-19T02:10:56.303Z,1005.54
2017-07-19T02:11:56.260Z,1005.53
2017-07-19T02:12:56.246Z,1005.48
2017-07-19T02:13:56.269Z,1005.47
2017-07-19T02:14:56.205Z,1005.46
2017-07-19T02:15:56.302Z,1005.45
2017-07-19T02:16:56.272Z,1005.41
2017-07-19T02:17:56.219Z,1005.41
2017-07-19T02:18:56.242Z,1005.44
2017-07-19T02:19:56.213Z,1005.41
2017-07-19T02:20:56.208Z,1005.44
2017-07-19T02:21:56.279Z,1005.44
2017-07-19T02:22:56.236Z,1005.46
2017-07-19T02:23:56.306Z,1005.47
2017-07-19T02:24:56.240Z,1005.52
2017-07-19T02:25:56.218Z,1005.55
2017-07-19T02:26:56.307Z,1005.56
2017-07-19T02:27:56.207Z,1005.55
2017-07-19T02:28:56.238Z,1005.55
2017-07-19T02:29:56.269Z,1005.51
2017-07-19T02:30:56.208Z,1005.53
2017-07-19T02:31:56.241Z,1005.55
2017-07-19T02:32:56.211Z,1005.52
2017-07-19T02:33:56.241Z,1005.46
2017-07-19T02:34:56.211Z,1005.51
2017-07-19T02:35:56.276Z,1005.48
2017-07-19T02:36:56.210Z,1005.50
2017-07-19T02:37:56.242Z,1005.45
2017-07-19T02:38:56.237Z,1005.41
2017-07-19T02:39:56.273Z,1005.40
2017-07-19T02:40:56.210Z,1005.33
2017-07-19T02:41:56.263Z,1005.36
2017-07-19T02:42:56.217Z,1005.36
2017-07-19T02:43:56.278Z,1005.36
2017-07-19T02:44:56.373Z,1005.41
2017-07-19T02:45:56.298Z,1005.40
2017-07-19T02:46:56.217Z,1005.44
2017-07-19T02:47:56.232Z,1005.39
2017-07-19T02:48:56.229Z,1005.42
2017-07-19T02:49:56.234Z,1005.43
2017-07-19T02:50:56.264Z,1005.41
2017-07-19T02:51:56.281Z,1005.42
2017-07-19T02:52:56.258Z,1005.42
2017-07-19T02:53:56.241Z,1005.47
2017-07-19T02:54:56.289Z,1005.48
2017-07-19T02:55:56.258Z,1005.45
2017-07-19T02:56:56.233Z,1005.48
2017-07-19T02:57:56.232Z,1005.44
2017-07-19T02:58:56.335Z,1005.50
2017-07-19T02:59:56.334Z,1005.50
2017-07-19T03:00:56.238Z,1005.53
2017-07-19T03:01:56.267Z,1005.50
2017-07-19T03:02:56.330Z,1005.55
2017-07-19T03:03:56.304Z,1005.53
2017-07-19T03:04:56.290Z,1005.53
2017-07-19T03:05:56.261Z,1005.56
2017-07-19T03:06:56.337Z,1005.49
2017-07-19T03:07:56.267Z,1005.48
2017-07-19T03:08:56.276Z,1005.42
2017-07-19T03:09:56.291Z,1005.44
2017-07-19T03:10:56.307Z,1005.43
2017-07-19T03:11:56.312Z,1005.41
2017-07-19T03:12:56.293Z,1005.44
2017-07-19T03:13:56.296Z,1005.41
2017-07-19T03:14:56.268Z,1005.42
2017-07-19T03:15:56.271Z,1005.43
2017-07-19T03:16:56.245Z,1005.40
2017-07-19T03:17:56.265Z,1005.42
2017-07-19T03:18:56.178Z,1005.39
2017-07-19T03:19:56.255Z,1005.38
2017-07-19T03:20:56.188Z,1005.41
2017-07-19T03:21:56.258Z,1005.36
2017-07-19T03:22:56.257Z,1005.41
2017-07-19T03:23:56.261Z,1005.46
2017-07-19T03:24:56.256Z,1005.39
2017-07-19T03:25:56.229Z,1005.45
2017-07-19T03:26:56.243Z,1005.37
2017-07-19T03:27:56.339Z,1005.35
2017-07-19T03:28:56.251Z,1005.44
2017-07-19T03:29:56.259Z,1005.33
2017-07-19T03:30:56.340Z,1005.36
2017-07-19T03:31:56.284Z,1005.33
2017-07-19T03:32:56.289Z,1005.30
2017-07-19T03:33:56.289Z,1005.33
2017-07-19T03:34:56.314Z,1005.28
2017-07-19T03:35:56.251Z,1005.27
2017-07-19T03:36:56.284Z,1005.30
2017-07-19T03:37:56.256Z,1005.30
2017-07-19T03:38:56.238Z,1005.30
2017-07-19T03:39:56.239Z,1005.30
2017-07-19T03:40:56.255Z,1005.31
2017-07-19T03:41:56.307Z,1005.32
2017-07-19T03:42:56.272Z,1005.29
2017-07-19T03:43:56.269Z,1005.26
2017-07-19T03:44:56.249Z,1005.28
2017-07-19T03:45:56.252Z,1005.29
2017-07-19T03:46:56.268Z,1005.29
2017-07-19T03:47:56.310Z,1005.22
2017-07-19T03:48:56.316Z,1005.24
2017-07-19T03:49:56.292Z,1005.25
2017-07-19T03:50:56.299Z,1005.22
2017-07-19T03:51:56.290Z,1005.22
2017-07-19T03:52:56.266Z,1005.17
2017-07-19T03:53:56.322Z,1005.22
2017-07-19T03:54:56.311Z,1005.19
2017-07-19T03:55:56.346Z,1005.23
2017-07-19T03:56:56.276Z,1005.18
2017-07-19T03:57:56.263Z,1005.23
2017-07-19T03:58:56.293Z,1005.19
2017-07-19T03:59:56.268Z,1005.19
2017-07-19T04:00:56.315Z,1005.19
2017-07-19T04:01:56.293Z,1005.19
2017-07-19T04:02:56.357Z,1005.19
2017-07-19T04:03:56.263Z,1005.11
2017-07-19T04:04:56.329Z,1005.14
2017-07-19T04:05:56.269Z,1005.14
2017-07-19T04:06:56.365Z,1005.13
2017-07-19T04:07:56.291Z,1005.13
2017-07-19T04:08:56.283Z,1005.12
2017-07-19T04:09:56.294Z,1005.18
2017-07-19T04:10:56.300Z,1005.16
2017-07-19T04:11:56.295Z,1005.16
2017-07-19T04:12:56.243Z,1005.20
2017-07-19T04:13:56.284Z,1005.23
2017-07-19T04:14:56.312Z,1005.16
2017-07-19T04:15:56.245Z,1005.22
2017-07-19T04:16:56.224Z,1005.20
2017-07-19T04:17:56.301Z,1005.22
2017-07-19T04:18:56.299Z,1005.23
2017-07-19T04:19:56.354Z,1005.21
2017-07-19T04:20:56.315Z,1005.18
2017-07-19T04:21:56.340Z,1005.22
2017-07-19T04:22:56.336Z,1005.21
2017-07-19T04:23:56.307Z,1005.18
2017-07-19T04:24:56.310Z,1005.20
2017-07-19T04:25:56.354Z,1005.20
2017-07-19T04:26:56.342Z,1005.22
2017-07-19T04:27:56.374Z,1005.19
2017-07-19T04:28:56.310Z,1005.12
2017-07-19T04:29:56.336Z,1005.17
2017-07-19T04:30:56.286Z,1005.17
2017-07-19T04:31:56.355Z,1005.16
2017-07-19T04:32:56.301Z,1005.16
2017-07-19T04:33:56.379Z,1005.13
2017-07-19T04:34:56.351Z,1005.18
2017-07-19T04:35:56.315Z,1005.21
2017-07-19T04:36:56.344Z,1005.21
2017-07-19T04:37:56.375Z,1005.19
2017-07-19T04:38:56.352Z,1005.19
2017-07-19T04:39:56.319Z,1005.14
2017-07-19T04:40:56.316Z,1005.13
2017-07-19T04:41:56.361Z,1005.09
2017-07-19T04:42:56.319Z,1005.05
2017-07-19T04:43:56.377Z,1005.06
2017-07-19T04:44:56.321Z,1005.08
2017-07-19T04:45:56.384Z,1005.08
2017-07-19T04:46:56.294Z,1005.09
2017-07-19T04:47:56.317Z,1005.09
2017-07-19T04:48:56.291Z,1005.16
2017-07-19T04:49:56.317Z,1005.14
2017-07-19T04:50:56.378Z,1005.07
2017-07-19T04:51:56.331Z,1005.10
2017-07-19T04:52:56.364Z,1005.11
2017-07-19T04:53:56.368Z,1005.01
2017-07-19T04:54:56.301Z,1005.08
2017-07-19T04:55:56.352Z,1005.05
2017-07-19T04:56:56.393Z,1005.05
2017-07-19T04:57:56.298Z,1005.06
2017-07-19T04:58:56.371Z,1005.07
2017-07-19T04:59:56.318Z,1005.07
2017-07-19T05:00:56.397Z,1005.01
2017-07-19T05:01:56.299Z,1005.08
2017-07-19T05:02:56.396Z,1005.07
2017-07-19T05:03:56.336Z,1005.08
2017-07-19T05:04:56.393Z,1005.10
2017-07-19T05:05:56.305Z,1005.13
2017-07-19T05:06:56.310Z,1005.14
2017-07-19T05:07:56.306Z,1005.14
2017-07-19T05:08:56.304Z,1005.14
2017-07-19T05:09:56.336Z,1005.14
2017-07-19T05:10:56.313Z,1005.09
2017-07-19T05:11:56.345Z,1005.08
2017-07-19T05:12:56.380Z,1005.11
2017-07-19T05:13:56.403Z,1005.01
2017-07-19T05:14:56.398Z,1005.01
2017-07-19T05:15:56.313Z,1005.00
2017-07-19T05:16:56.338Z,1005.01
2017-07-19T05:17:56.367Z,1004.97
2017-07-19T05:18:56.326Z,1004.99
2017-07-19T05:19:56.301Z,1004.98
2017-07-19T05:20:56.363Z,1004.95
2017-07-19T05:21:56.298Z,1004.93
2017-07-19T05:22:56.332Z,1004.92
2017-07-19T05:23:56.300Z,1004.96
2017-07-19T05:24:56.335Z,1004.94
2017-07-19T05:25:56.364Z,1004.95
2017-07-19T05:26:56.371Z,1004.96
2017-07-19T05:27:56.353Z,1004.97
2017-07-19T05:28:56.336Z,1004.96
2017-07-19T05:29:56.325Z,1005.01
2017-07-19T05:30:57.431Z,1004.98
2017-07-19T05:31:56.342Z,1005.01
2017-07-19T05:32:56.342Z,1005.01
2017-07-19T05:33:56.382Z,1005.03
2017-07-19T05:34:56.318Z,1005.02
2017-07-19T05:35:56.384Z,1005.04
2017-07-19T05:36:56.286Z,1005.02
2017-07-19T05:37:56.387Z,1005.04
2017-07-19T05:38:56.340Z,1005.06
2017-07-19T05:39:56.320Z,1005.06
2017-07-19T05:40:56.289Z,1005.04
2017-07-19T05:41:56.391Z,1005.08
2017-07-19T05:42:56.343Z,1005.04
2017-07-19T05:43:56.328Z,1005.03
2017-07-19T05:44:56.342Z,1005.05
2017-07-19T05:45:56.347Z,1005.06
2017-07-19T05:46:56.275Z,1005.05
2017-07-19T05:47:56.346Z,1005.14
2017-07-19T05:48:56.518Z,1005.11
2017-07-19T05:49:56.393Z,1005.12
2017-07-19T05:50:56.332Z,1005.11
2017-07-19T05:51:56.400Z,1005.11
2017-07-19T05:52:56.334Z,1005.08
2017-07-19T05:53:56.421Z,1005.12
2017-07-19T05:54:56.354Z,1005.15
2017-07-19T05:55:56.393Z,1005.16
2017-07-19T05:56:56.337Z,1005.10
2017-07-19T05:57:56.418Z,1005.10
2017-07-19T05:58:56.424Z,1005.12
2017-07-19T05:59:56.371Z,1005.07
2017-07-19T06:00:56.336Z,1005.10
2017-07-19T06:01:56.361Z,1005.05
2017-07-19T06:02:56.364Z,1005.03
2017-07-19T06:03:56.335Z,1005.04
2017-07-19T06:04:56.337Z,1005.04
2017-07-19T06:05:56.335Z,1005.00
2017-07-19T06:06:56.337Z,1004.95
2017-07-19T06:07:56.390Z,1004.93
2017-07-19T06:08:56.396Z,1004.94
2017-07-19T06:09:56.360Z,1004.92
2017-07-19T06:10:56.359Z,1004.95
2017-07-19T06:11:56.470Z,1004.91
2017-07-19T06:12:56.391Z,1004.91
2017-07-19T06:13:56.363Z,1004.98
2017-07-19T06:14:56.387Z,1004.91
2017-07-19T06:15:56.363Z,1004.90
2017-07-19T06:16:56.332Z,1004.86
2017-07-19T06:17:56.359Z,1004.88
2017-07-19T06:18:56.345Z,1004.86
2017-07-19T06:19:56.369Z,1004.88
2017-07-19T06:20:56.436Z,1004.83
2017-07-19T06:21:56.377Z,1004.86
2017-07-19T06:22:56.440Z,1004.85
2017-07-19T06:23:56.386Z,1004.82
2017-07-19T06:24:56.419Z,1004.78
2017-07-19T06:25:56.346Z,1004.78
2017-07-19T06:26:56.366Z,1004.81
2017-07-19T06:27:56.349Z,1004.76
2017-07-19T06:28:56.333Z,1004.78
2017-07-19T06:29:56.372Z,1004.72
2017-07-19T06:30:56.377Z,1004.73
2017-07-19T06:31:56.345Z,1004.70
2017-07-19T06:32:56.376Z,1004.75
2017-07-19T06:33:56.373Z,1004.70
2017-07-19T06:34:56.404Z,1004.69
2017-07-19T06:35:56.407Z,1004.76
2017-07-19T06:36:56.417Z,1004.78
2017-07-19T06:37:56.375Z,1004.76
2017-07-19T06:38:56.355Z,1004.79
2017-07-19T06:39:56.353Z,1004.79
2017-07-19T06:40:56.375Z,1004.80
2017-07-19T06:41:56.393Z,1004.77
2017-07-19T06:42:56.354Z,1004.82
2017-07-19T06:43:56.413Z,1004.76
2017-07-19T06:44:56.434Z,1004.84
2017-07-19T06:45:56.421Z,1004.75
2017-07-19T06:46:56.418Z,1004.81
2017-07-19T06:47:56.359Z,1004.78
2017-07-19T06:48:56.380Z,1004.80
2017-07-19T06:49:56.424Z,1004.89
2017-07-19T06:50:56.425Z,1004.86
2017-07-19T06:51:56.396Z,1004.82
2017-07-19T06:52:56.357Z,1004.81
2017-07-19T06:53:56.417Z,1004.78
2017-07-19T06:54:56.363Z,1004.84
2017-07-19T06:55:56.400Z,1004.85
2017-07-19T06:56:56.419Z,1004.80
2017-07-19T06:57:56.382Z,1004.80
2017-07-19T06:58:56.344Z,1004.82
2017-07-19T06:59:56.383Z,1004.88
2017-07-19T07:00:56.380Z,1004.81
2017-07-19T07:01:56.380Z,1004.80
2017-07-19T07:02:56.360Z,1004.82
2017-07-19T07:03:56.345Z,1004.81
2017-07-19T07:04:56.392Z,1004.78
2017-07-19T07:05:56.368Z,1004.73
2017-07-19T07:06:56.382Z,1004.70
2017-07-19T07:07:56.379Z,1004.71
2017-07-19T07:08:56.458Z,1004.65
2017-07-19T07:09:56.465Z,1004.70
2017-07-19T07:10:56.395Z,1004.72
2017-07-19T07:11:56.429Z,1004.67
2017-07-19T07:12:56.374Z,1004.64
2017-07-19T07:13:56.434Z,1004.65
2017-07-19T07:14:56.404Z,1004.58
2017-07-19T07:16:56.446Z,1004.61
2017-07-19T07:17:56.400Z,1004.57
2017-07-19T07:18:56.408Z,1004.55
2017-07-19T07:19:56.397Z,1004.50
2017-07-19T07:20:56.399Z,1004.53
2017-07-19T07:21:56.383Z,1004.56
2017-07-19T07:22:56.469Z,1004.50
2017-07-19T07:23:56.452Z,1004.49
2017-07-19T07:24:56.378Z,1004.47
2017-07-19T07:25:56.380Z,1004.44
2017-07-19T07:26:56.468Z,1004.42
2017-07-19T07:27:56.398Z,1004.41
2017-07-19T07:28:56.412Z,1004.38
2017-07-19T07:29:56.441Z,1004.39
2017-07-19T07:30:56.469Z,1004.39
2017-07-19T07:31:56.437Z,1004.35
2017-07-19T07:32:56.415Z,1004.33
2017-07-19T07:33:56.422Z,1004.31
2017-07-19T07:34:56.458Z,1004.38
2017-07-19T07:35:56.415Z,1004.40
2017-07-19T07:36:56.409Z,1004.30
2017-07-19T07:37:56.442Z,1004.34
2017-07-19T07:38:56.441Z,1004.36
2017-07-19T07:39:56.412Z,1004.30
2017-07-19T07:40:56.442Z,1004.27
2017-07-19T07:41:56.446Z,1004.26
2017-07-19T07:42:56.412Z,1004.20
2017-07-19T07:43:56.440Z,1004.22
2017-07-19T07:44:56.504Z,1004.23
2017-07-19T07:45:56.415Z,1004.21
2017-07-19T07:46:56.385Z,1004.24
2017-07-19T07:47:56.419Z,1004.26
2017-07-19T07:48:56.412Z,1004.25
2017-07-19T07:49:56.497Z,1004.24
2017-07-19T07:50:56.385Z,1004.18
2017-07-19T07:51:56.447Z,1004.20
2017-07-19T07:52:56.419Z,1004.20
2017-07-19T07:53:56.451Z,1004.24
2017-07-19T07:54:56.384Z,1004.17
2017-07-19T07:55:56.422Z,1004.18
2017-07-19T07:56:56.388Z,1004.17
2017-07-19T07:57:56.393Z,1004.16
2017-07-19T07:58:56.451Z,1004.13
2017-07-19T07:59:56.419Z,1004.08
2017-07-19T08:00:56.386Z,1004.12
2017-07-19T08:01:56.391Z,1004.09
2017-07-19T08:02:56.425Z,1004.11
2017-07-19T08:03:56.453Z,1004.09
2017-07-19T08:04:56.505Z,1004.05
2017-07-19T08:05:56.390Z,1004.06
2017-07-19T08:06:56.424Z,1003.98
2017-07-19T08:07:56.390Z,1003.96
2017-07-19T08:08:56.423Z,1003.99
2017-07-19T08:09:56.540Z,1003.99
2017-07-19T08:10:56.461Z,1003.93
2017-07-19T08:11:56.431Z,1003.93
2017-07-19T08:12:56.465Z,1003.97
2017-07-19T08:13:56.422Z,1003.92
2017-07-19T08:14:56.457Z,1003.87
2017-07-19T08:15:56.462Z,1003.85
2017-07-19T08:16:56.398Z,1003.85
2017-07-19T08:17:56.399Z,1003.86
2017-07-19T08:18:56.444Z,1003.83
2017-07-19T08:19:56.483Z,1003.79
2017-07-19T08:20:56.465Z,1003.79
2017-07-19T08:21:56.416Z,1003.68
2017-07-19T08:22:56.412Z,1003.70
2017-07-19T08:23:56.511Z,1003.65
2017-07-19T08:24:56.416Z,1003.61
2017-07-19T08:25:56.490Z,1003.61
2017-07-19T08:26:56.478Z,1003.56
2017-07-19T08:27:56.500Z,1003.60
2017-07-19T08:28:56.476Z,1003.53
2017-07-19T08:29:56.511Z,1003.53
2017-07-19T08:30:56.448Z,1003.52
2017-07-19T08:31:56.475Z,1003.55
2017-07-19T08:32:56.452Z,1003.46
2017-07-19T08:33:56.418Z,1003.48
2017-07-19T08:34:56.519Z,1003.46
2017-07-19T08:35:56.488Z,1003.42
2017-07-19T08:37:56.452Z,1003.42
2017-07-19T08:39:56.517Z,1003.42
2017-07-19T08:40:56.492Z,1003.45
2017-07-19T08:41:56.420Z,1003.44
2017-07-19T08:42:56.449Z,1003.47
2017-07-19T08:43:56.452Z,1003.42
2017-07-19T08:44:56.424Z,1003.41
2017-07-19T08:45:56.514Z,1003.42
2017-07-19T08:46:56.428Z,1003.40
2017-07-19T08:47:56.467Z,1003.42
2017-07-19T08:48:56.447Z,1003.43
2017-07-19T08:49:56.476Z,1003.41
2017-07-19T08:50:56.430Z,1003.43
2017-07-19T08:51:56.415Z,1003.34
2017-07-19T08:52:56.436Z,1003.45
2017-07-19T08:53:56.381Z,1003.41
2017-07-19T08:54:56.453Z,1003.37
2017-07-19T08:55:56.413Z,1003.33
2017-07-19T08:56:56.430Z,1003.35
2017-07-19T08:57:56.418Z,1003.37
2017-07-19T08:58:56.490Z,1003.34
2017-07-19T08:59:56.524Z,1003.37
2017-07-19T09:00:56.472Z,1003.34
2017-07-19T09:01:56.476Z,1003.30
2017-07-19T09:02:56.494Z,1003.30
2017-07-19T09:03:56.473Z,1003.33
2017-07-19T09:04:56.498Z,1003.34
2017-07-19T09:05:56.458Z,1003.38
2017-07-19T09:06:56.444Z,1003.33
2017-07-19T09:07:56.440Z,1003.34
2017-07-19T09:08:56.440Z,1003.32
2017-07-19T09:09:56.438Z,1003.21
2017-07-19T09:10:56.465Z,1003.21
2017-07-19T09:11:56.443Z,1003.21
2017-07-19T09:12:56.497Z,1003.25
2017-07-19T09:13:56.507Z,1003.24
2017-07-19T09:14:56.469Z,1003.19
2017-07-19T09:15:56.474Z,1003.27
2017-07-19T09:16:56.503Z,1003.28
2017-07-19T09:17:56.463Z,1003.26
2017-07-19T09:18:56.463Z,1003.21
2017-07-19T09:19:56.504Z,1003.17
2017-07-19T09:20:56.431Z,1003.22
2017-07-19T09:21:56.439Z,1003.14
2017-07-19T09:22:56.469Z,1003.12
2017-07-19T09:23:56.435Z,1003.03
2017-07-19T09:24:56.503Z,1003.07
2017-07-19T09:25:56.499Z,1003.08
2017-07-19T09:26:56.503Z,1003.08
2017-07-19T09:27:56.504Z,1003.00
2017-07-19T09:28:56.454Z,1003.01
2017-07-19T09:29:56.460Z,1003.01
2017-07-19T09:30:56.463Z,1002.99
2017-07-19T09:31:56.458Z,1003.00
2017-07-19T09:32:56.463Z,1002.98
2017-07-19T09:33:56.388Z,1003.00
2017-07-19T09:34:56.346Z,1003.03
2017-07-19T09:35:56.498Z,1002.96
2017-07-19T09:36:56.398Z,1002.93
2017-07-19T09:37:56.348Z,1002.96
2017-07-19T09:38:56.333Z,1002.98
2017-07-19T09:39:56.349Z,1002.98
2017-07-19T09:40:56.392Z,1002.90
2017-07-19T09:41:56.364Z,1002.93
2017-07-19T09:42:56.389Z,1002.95
2017-07-19T09:43:56.476Z,1002.90
2017-07-19T09:44:56.479Z,1002.94
2017-07-19T09:45:56.514Z,1002.91
2017-07-19T09:46:56.480Z,1002.82
2017-07-19T09:47:56.516Z,1002.84
2017-07-19T09:48:56.452Z,1002.77
2017-07-19T09:49:56.457Z,1002.79
2017-07-19T09:50:56.447Z,1002.80
2017-07-19T09:51:56.479Z,1002.78
2017-07-19T09:52:56.520Z,1002.80
2017-07-19T09:53:56.530Z,1002.75
2017-07-19T09:54:56.504Z,1002.71
2017-07-19T09:55:56.488Z,1002.68
2017-07-19T09:56:56.471Z,1002.66
2017-07-19T09:57:56.528Z,1002.61
2017-07-19T09:58:56.496Z,1002.60
2017-07-19T09:59:56.469Z,1002.56
2017-07-19T10:00:56.568Z,1002.51
2017-07-19T10:01:56.473Z,1002.47
2017-07-19T10:02:56.504Z,1002.41
2017-07-19T10:03:56.550Z,1002.40
2017-07-19T10:04:56.535Z,1002.42
2017-07-19T10:05:56.476Z,1002.45
2017-07-19T10:06:56.572Z,1002.38
2017-07-19T10:07:56.535Z,1002.39
2017-07-19T10:08:56.476Z,1002.39
2017-07-19T10:09:56.542Z,1002.38
2017-07-19T10:10:56.562Z,1002.39
2017-07-19T10:11:56.529Z,1002.41
2017-07-19T10:12:56.567Z,1002.46
2017-07-19T10:13:56.476Z,1002.46
2017-07-19T10:14:56.499Z,1002.44
2017-07-19T10:15:56.532Z,1002.44
2017-07-19T10:16:56.509Z,1002.47
2017-07-19T10:17:56.542Z,1002.48
2017-07-19T10:18:56.493Z,1002.46
2017-07-19T10:19:56.550Z,1002.48
2017-07-19T10:20:56.515Z,1002.51
2017-07-19T10:21:56.534Z,1002.45
2017-07-19T10:22:56.575Z,1002.54
2017-07-19T10:23:56.575Z,1002.50
2017-07-19T10:24:56.576Z,1002.52
2017-07-19T10:25:56.557Z,1002.48
2017-07-19T10:26:56.540Z,1002.56
2017-07-19T10:27:56.512Z,1002.51
2017-07-19T10:28:56.486Z,1002.53
2017-07-19T10:29:56.512Z,1002.49
2017-07-19T10:30:56.546Z,1002.47
2017-07-19T10:31:56.488Z,1002.50
2017-07-19T10:32:56.518Z,1002.42
2017-07-19T10:33:56.573Z,1002.36
2017-07-19T10:34:56.576Z,1002.43
2017-07-19T10:35:56.558Z,1002.37
2017-07-19T10:36:56.582Z,1002.35
2017-07-19T10:37:56.547Z,1002.41
2017-07-19T10:38:56.493Z,1002.36
2017-07-19T10:39:56.521Z,1002.31
2017-07-19T10:40:56.493Z,1002.39
2017-07-19T10:41:56.496Z,1002.37
2017-07-19T10:42:56.582Z,1002.38
2017-07-19T10:43:56.489Z,1002.34
2017-07-19T10:44:56.564Z,1002.35
2017-07-19T10:45:56.582Z,1002.25
2017-07-19T10:46:56.548Z,1002.24
2017-07-19T10:47:56.532Z,1002.24
2017-07-19T10:48:56.531Z,1002.21
2017-07-19T10:49:56.583Z,1002.19
2017-07-19T10:50:56.588Z,1002.15
2017-07-19T10:51:56.554Z,1002.14
2017-07-19T10:52:56.531Z,1002.12
2017-07-19T10:53:56.558Z,1002.15
2017-07-19T10:54:56.589Z,1002.19
2017-07-19T10:55:56.377Z,1002.11
2017-07-19T10:56:56.438Z,1002.04
2017-07-19T10:57:56.401Z,1002.05
2017-07-19T10:58:56.482Z,1002.04
2017-07-19T10:59:56.407Z,1002.10
2017-07-19T11:00:56.501Z,1002.08
2017-07-19T11:01:56.446Z,1002.06
2017-07-19T11:02:56.387Z,1002.07
2017-07-19T11:03:56.431Z,1002.11
2017-07-19T11:04:56.440Z,1002.11
2017-07-19T11:05:56.441Z,1002.10
2017-07-19T11:06:56.392Z,1002.07
2017-07-19T11:07:56.443Z,1001.97
2017-07-19T11:08:56.405Z,1001.99
2017-07-19T11:09:56.440Z,1001.86
2017-07-19T11:10:56.449Z,1001.91
2017-07-19T11:11:56.400Z,1001.86
2017-07-19T11:12:56.454Z,1001.87
2017-07-19T11:13:56.385Z,1001.81
2017-07-19T11:14:56.504Z,1001.78
2017-07-19T11:15:56.530Z,1001.77
2017-07-19T11:16:56.533Z,1001.79
2017-07-19T11:17:56.534Z,1001.85
2017-07-19T11:18:56.500Z,1001.81
2017-07-19T11:19:56.537Z,1001.84
2017-07-19T11:20:56.565Z,1001.81
2017-07-19T11:21:56.572Z,1001.85
2017-07-19T11:22:56.537Z,1001.81
2017-07-19T11:23:56.573Z,1001.80
2017-07-19T11:24:56.549Z,1001.82
2017-07-19T11:25:56.546Z,1001.79
2017-07-19T11:26:56.548Z,1001.76
2017-07-19T11:27:56.594Z,1001.75
2017-07-19T11:28:56.580Z,1001.70
2017-07-19T11:29:56.595Z,1001.68
2017-07-19T11:30:56.591Z,1001.70
2017-07-19T11:31:56.590Z,1001.65
2017-07-19T11:32:56.614Z,1001.68
2017-07-19T11:33:56.581Z,1001.67
2017-07-19T11:34:56.554Z,1001.67
2017-07-19T11:35:56.586Z,1001.71
2017-07-19T11:36:56.615Z,1001.65
2017-07-19T11:37:56.585Z,1001.60
2017-07-19T11:38:56.613Z,1001.60
2017-07-19T11:39:56.555Z,1001.56
2017-07-19T11:40:56.537Z,1001.55
2017-07-19T11:41:56.592Z,1001.53
2017-07-19T11:42:56.599Z,1001.52
2017-07-19T11:43:56.551Z,1001.46
2017-07-19T11:44:56.532Z,1001.40
2017-07-19T11:45:56.528Z,1001.38
2017-07-19T11:46:56.560Z,1001.38
2017-07-19T11:47:56.610Z,1001.46
2017-07-19T11:48:56.531Z,1001.39
2017-07-19T11:49:56.538Z,1001.36
2017-07-19T11:50:56.598Z,1001.42
2017-07-19T11:51:56.596Z,1001.40
2017-07-19T11:52:56.556Z,1001.42
2017-07-19T11:53:56.556Z,1001.38
2017-07-19T11:54:56.540Z,1001.37
2017-07-19T11:55:56.538Z,1001.36
2017-07-19T11:56:56.611Z,1001.43
2017-07-19T11:57:56.629Z,1001.37
2017-07-19T11:58:56.536Z,1001.33
2017-07-19T11:59:56.608Z,1001.32
2017-07-19T12:00:56.539Z,1001.35
2017-07-19T12:01:56.572Z,1001.36
2017-07-19T12:02:56.564Z,1001.35
2017-07-19T12:03:56.605Z,1001.34
2017-07-19T12:04:56.562Z,1001.28
2017-07-19T12:05:56.565Z,1001.26
2017-07-19T12:06:56.513Z,1001.25
2017-07-19T12:07:56.540Z,1001.26
2017-07-19T12:08:56.542Z,1001.23